createdAt,value
2022-09-02T00:00:26.532Z,0.00
2022-09-02T00:01:26.516Z,0.00
2022-09-02T00:02:26.624Z,0.00
2022-09-02T00:03:27.013Z,0.00
2022-09-02T00:04:26.474Z,0.00
2022-09-02T00:05:26.448Z,0.00
2022-09-02T00:06:26.432Z,0.00
2022-09-02T00:07:26.414Z,0.00
2022-09-02T00:08:26.397Z,0.00
2022-09-02T00:09:26.399Z,0.00
2022-09-02T00:10:26.382Z,0.00
2022-09-02T00:11:26.348Z,0.00
2022-09-02T00:12:26.328Z,0.00
2022-09-02T00:13:26.307Z,0.00
2022-09-02T00:14:26.308Z,0.00
2022-09-02T00:15:26.278Z,0.00
2022-09-02T00:16:26.305Z,0.00
2022-09-02T00:17:26.259Z,0.00
2022-09-02T00:18:26.229Z,0.00
2022-09-02T00:19:26.224Z,0.00
2022-09-02T00:20:26.216Z,0.00
2022-09-02T00:21:26.187Z,0.00
2022-09-02T00:22:26.157Z,0.00
2022-09-02T00:23:27.244Z,0.00
2022-09-02T00:24:26.126Z,0.00
2022-09-02T00:25:26.129Z,0.00
2022-09-02T00:26:26.086Z,0.00
2022-09-02T00:27:26.077Z,0.00
2022-09-02T00:28:26.063Z,0.00
2022-09-02T00:29:26.031Z,0.00
2022-09-02T00:30:26.037Z,0.00
2022-09-02T00:31:26.059Z,0.00
2022-09-02T00:32:26.000Z,0.00
2022-09-02T00:33:25.962Z,0.00
2022-09-02T00:34:25.950Z,0.00
2022-09-02T00:35:25.930Z,0.00
2022-09-02T00:36:25.916Z,0.00
2022-09-02T00:37:25.899Z,0.00
2022-09-02T00:38:25.896Z,0.00
2022-09-02T00:39:25.862Z,0.00
2022-09-02T00:40:25.878Z,0.00
2022-09-02T00:41:25.834Z,0.00
2022-09-02T00:42:25.813Z,0.00
2022-09-02T00:43:25.820Z,0.00
2022-09-02T00:44:25.783Z,0.00
2022-09-02T00:45:25.798Z,0.00
2022-09-02T00:46:25.745Z,0.00
2022-09-02T00:47:25.727Z,0.00
2022-09-02T00:48:25.728Z,0.00
2022-09-02T00:49:25.687Z,0.00
2022-09-02T00:50:25.671Z,0.00
2022-09-02T00:51:25.678Z,0.00
2022-09-02T00:52:25.652Z,0.00
2022-09-02T00:53:25.618Z,0.00
2022-09-02T00:54:25.620Z,0.00
2022-09-02T00:55:25.592Z,0.00
2022-09-02T00:56:25.671Z,0.00
2022-09-02T00:57:25.554Z,0.00
2022-09-02T00:58:25.533Z,0.00
2022-09-02T00:59:25.517Z,0.00
2022-09-02T01:00:25.512Z,0.00
2022-09-02T01:01:25.605Z,0.00
2022-09-02T01:02:25.557Z,0.00
2022-09-02T01:03:25.447Z,0.00
2022-09-02T01:04:25.428Z,0.00
2022-09-02T01:05:25.432Z,0.00
2022-09-02T01:06:25.394Z,0.00
2022-09-02T01:07:25.376Z,0.00
2022-09-02T01:08:25.376Z,0.00
2022-09-02T01:09:25.361Z,0.00
2022-09-02T01:10:25.333Z,0.00
2022-09-02T01:11:25.306Z,0.00
2022-09-02T01:12:25.291Z,0.00
2022-09-02T01:13:25.275Z,0.00
2022-09-02T01:14:28.687Z,0.00
2022-09-02T01:15:25.240Z,0.00
2022-09-02T01:16:25.632Z,0.00
2022-09-02T01:17:25.205Z,0.00
2022-09-02T01:18:25.211Z,0.00
2022-09-02T01:19:25.167Z,0.00
2022-09-02T01:20:25.387Z,0.00
2022-09-02T01:21:25.133Z,0.00
2022-09-02T01:22:25.110Z,0.00
2022-09-02T01:23:25.238Z,0.00
2022-09-02T01:24:25.096Z,0.00
2022-09-02T01:25:25.064Z,0.00
2022-09-02T01:26:25.046Z,0.00
2022-09-02T01:27:25.033Z,0.00
2022-09-02T01:28:25.029Z,0.00
2022-09-02T01:29:24.993Z,0.00
2022-09-02T01:30:24.978Z,0.00
2022-09-02T01:31:25.002Z,0.00
2022-09-02T01:32:24.962Z,0.00
2022-09-02T01:33:25.368Z,0.00
2022-09-02T01:34:24.921Z,0.00
2022-09-02T01:35:24.909Z,0.00
2022-09-02T01:36:24.874Z,0.00
2022-09-02T01:37:24.859Z,0.00
2022-09-02T01:38:24.835Z,0.00
2022-09-02T01:39:24.836Z,0.00
2022-09-02T01:40:24.862Z,0.00
2022-09-02T01:41:24.801Z,0.00
2022-09-02T01:42:24.769Z,0.00
2022-09-02T01:43:24.764Z,0.00
2022-09-02T01:44:24.734Z,0.00
2022-09-02T01:45:24.727Z,0.00
2022-09-02T01:46:24.763Z,0.00
2022-09-02T01:47:24.693Z,0.00
2022-09-02T01:48:24.679Z,0.00
2022-09-02T01:49:24.644Z,0.00
2022-09-02T01:50:24.629Z,0.00
2022-09-02T01:51:24.630Z,0.00
2022-09-02T01:52:24.595Z,0.00
2022-09-02T01:53:24.589Z,0.00
2022-09-02T01:54:24.559Z,0.00
2022-09-02T01:55:24.539Z,0.00
2022-09-02T01:56:24.522Z,0.00
2022-09-02T01:57:24.525Z,0.00
2022-09-02T01:58:24.509Z,0.00
2022-09-02T01:59:24.467Z,0.00
2022-09-02T02:00:24.451Z,0.00
2022-09-02T02:01:24.547Z,0.00
2022-09-02T02:02:24.510Z,0.00
2022-09-02T02:03:24.419Z,0.00
2022-09-02T02:04:24.401Z,0.00
2022-09-02T02:05:24.365Z,0.00
2022-09-02T02:06:24.345Z,0.00
2022-09-02T02:07:24.352Z,0.00
2022-09-02T02:08:24.311Z,0.00
2022-09-02T02:09:24.295Z,0.00
2022-09-02T02:10:24.275Z,0.00
2022-09-02T02:11:24.260Z,0.00
2022-09-02T02:12:24.240Z,0.00
2022-09-02T02:13:24.246Z,0.00
2022-09-02T02:14:24.230Z,0.00
2022-09-02T02:15:45.222Z,0.00
2022-09-02T02:16:24.237Z,0.00
2022-09-02T02:17:24.151Z,0.00
2022-09-02T02:18:24.135Z,0.00
2022-09-02T02:19:24.135Z,0.00
2022-09-02T02:20:24.099Z,0.00
2022-09-02T02:21:24.081Z,0.00
2022-09-02T02:22:24.067Z,0.00
2022-09-02T02:23:24.053Z,0.00
2022-09-02T02:24:24.051Z,0.00
2022-09-02T02:25:24.013Z,0.00
2022-09-02T02:26:23.995Z,0.00
2022-09-02T02:27:23.976Z,0.00
2022-09-02T02:28:23.974Z,0.00
2022-09-02T02:29:23.944Z,0.00
2022-09-02T02:30:23.941Z,0.00
2022-09-02T02:31:23.951Z,0.00
2022-09-02T02:32:23.890Z,0.00
2022-09-02T02:33:26.187Z,0.00
2022-09-02T02:34:23.877Z,0.00
2022-09-02T02:35:23.840Z,0.00
2022-09-02T02:36:23.820Z,0.00
2022-09-02T02:37:25.607Z,0.00
2022-09-02T02:38:23.790Z,0.00
2022-09-02T02:39:23.769Z,0.00
2022-09-02T02:40:23.858Z,0.00
2022-09-02T02:41:23.739Z,0.00
2022-09-02T02:42:23.718Z,0.00
2022-09-02T02:43:23.785Z,0.00
2022-09-02T02:44:23.678Z,0.00
2022-09-02T02:45:23.685Z,0.00
2022-09-02T02:46:23.691Z,0.00
2022-09-02T02:47:23.627Z,0.00
2022-09-02T02:48:23.626Z,0.00
2022-09-02T02:49:23.594Z,0.00
2022-09-02T02:50:23.599Z,0.00
2022-09-02T02:51:23.559Z,0.00
2022-09-02T02:52:23.556Z,0.00
2022-09-02T02:53:23.692Z,0.00
2022-09-02T02:54:23.508Z,0.00
2022-09-02T02:55:23.488Z,0.00
2022-09-02T02:56:23.472Z,0.00
2022-09-02T02:57:23.455Z,0.00
2022-09-02T02:58:23.459Z,0.00
2022-09-02T02:59:23.436Z,0.00
2022-09-02T03:00:23.403Z,0.00
2022-09-02T03:01:23.419Z,0.00
2022-09-02T03:02:23.459Z,0.00
2022-09-02T03:03:23.494Z,0.00
2022-09-02T03:04:23.333Z,0.00
2022-09-02T03:05:23.313Z,0.00
2022-09-02T03:06:26.444Z,0.00
2022-09-02T03:07:23.295Z,0.00
2022-09-02T03:08:23.257Z,0.00
2022-09-02T03:09:23.247Z,0.00
2022-09-02T03:10:23.241Z,0.00
2022-09-02T03:11:23.212Z,0.00
2022-09-02T03:12:23.190Z,0.00
2022-09-02T03:13:23.295Z,0.00
2022-09-02T03:14:23.170Z,0.00
2022-09-02T03:15:23.140Z,0.00
2022-09-02T03:16:23.205Z,0.00
2022-09-02T03:17:23.106Z,0.00
2022-09-02T03:18:23.087Z,0.00
2022-09-02T03:19:23.080Z,0.00
2022-09-02T03:20:23.051Z,0.00
2022-09-02T03:21:23.051Z,0.00
2022-09-02T03:22:23.033Z,0.00
2022-09-02T03:23:23.100Z,0.00
2022-09-02T03:24:22.979Z,0.00
2022-09-02T03:25:22.967Z,0.00
2022-09-02T03:26:22.945Z,0.00
2022-09-02T03:27:22.951Z,0.00
2022-09-02T03:28:22.922Z,0.00
2022-09-02T03:29:22.897Z,0.00
2022-09-02T03:30:22.879Z,0.00
2022-09-02T03:31:22.915Z,0.00
2022-09-02T03:32:22.841Z,0.00
2022-09-02T03:33:22.956Z,0.00
2022-09-02T03:34:22.810Z,0.00
2022-09-02T03:35:22.796Z,0.00
2022-09-02T03:36:22.786Z,0.00
2022-09-02T03:37:22.781Z,0.00
2022-09-02T03:38:22.740Z,0.00
2022-09-02T03:39:22.720Z,0.00
2022-09-02T03:40:22.730Z,0.00
2022-09-02T03:41:22.683Z,0.00
2022-09-02T03:42:22.667Z,0.00
2022-09-02T03:43:22.779Z,0.00
2022-09-02T03:44:22.630Z,0.00
2022-09-02T03:45:22.630Z,0.00
2022-09-02T03:46:22.609Z,0.00
2022-09-02T03:47:22.579Z,0.00
2022-09-02T03:48:22.561Z,0.00
2022-09-02T03:49:22.541Z,0.00
2022-09-02T03:50:22.527Z,0.00
2022-09-02T03:51:22.530Z,0.00
2022-09-02T03:52:22.490Z,0.00
2022-09-02T03:53:22.574Z,0.00
2022-09-02T03:54:22.459Z,0.00
2022-09-02T03:55:22.437Z,0.00
2022-09-02T03:56:22.437Z,0.00
2022-09-02T03:57:22.404Z,0.00
2022-09-02T03:58:22.379Z,0.00
2022-09-02T03:59:22.397Z,0.00
2022-09-02T04:00:22.365Z,0.00
2022-09-02T04:01:22.399Z,0.00
2022-09-02T04:02:22.510Z,0.00
2022-09-02T04:03:22.671Z,0.00
2022-09-02T04:04:22.952Z,0.00
2022-09-02T04:05:22.262Z,0.00
2022-09-02T04:06:22.242Z,0.00
2022-09-02T04:07:22.810Z,0.00
2022-09-02T04:08:22.230Z,0.00
2022-09-02T04:09:22.212Z,0.00
2022-09-02T04:10:22.192Z,0.00
2022-09-02T04:11:22.175Z,0.00
2022-09-02T04:12:22.141Z,0.00
2022-09-02T04:13:22.200Z,0.00
2022-09-02T04:14:22.102Z,0.00
2022-09-02T04:15:22.083Z,0.00
2022-09-02T04:16:22.102Z,0.00
2022-09-02T04:17:22.068Z,0.00
2022-09-02T04:18:22.033Z,0.00
2022-09-02T04:19:22.012Z,0.00
2022-09-02T04:20:21.996Z,0.00
2022-09-02T04:21:21.996Z,0.00
2022-09-02T04:22:21.958Z,4.00
2022-09-02T04:23:22.019Z,4.00
2022-09-02T04:24:21.924Z,0.00
2022-09-02T04:25:24.174Z,0.00
2022-09-02T04:26:21.905Z,4.00
2022-09-02T04:27:21.889Z,0.00
2022-09-02T04:28:21.870Z,4.00
2022-09-02T04:29:21.850Z,0.00
2022-09-02T04:30:21.830Z,4.00
2022-09-02T04:31:21.926Z,4.00
2022-09-02T04:32:21.783Z,8.00
2022-09-02T04:33:21.884Z,8.00
2022-09-02T04:34:21.767Z,8.00
2022-09-02T04:35:21.729Z,8.00
2022-09-02T04:36:21.709Z,12.00
2022-09-02T04:37:21.719Z,12.00
2022-09-02T04:38:21.689Z,12.00
2022-09-02T04:39:21.673Z,12.00
2022-09-02T04:40:21.712Z,16.00
2022-09-02T04:41:21.619Z,16.00
2022-09-02T04:42:21.612Z,20.00
2022-09-02T04:43:21.792Z,20.00
2022-09-02T04:44:21.563Z,28.00
2022-09-02T04:45:21.564Z,28.00
2022-09-02T04:46:21.588Z,32.00
2022-09-02T04:47:21.512Z,36.00
2022-09-02T04:48:21.493Z,40.00
2022-09-02T04:49:21.494Z,44.00
2022-09-02T04:50:21.464Z,48.00
2022-09-02T04:51:21.470Z,52.00
2022-09-02T04:52:21.429Z,56.00
2022-09-02T04:53:21.522Z,60.00
2022-09-02T04:54:21.395Z,68.00
2022-09-02T04:55:21.375Z,72.00
2022-09-02T04:56:21.374Z,80.00
2022-09-02T04:57:21.337Z,88.00
2022-09-02T04:58:21.318Z,96.00
2022-09-02T04:59:21.328Z,104.00
2022-09-02T05:00:21.283Z,112.00
2022-09-02T05:01:21.408Z,116.00
2022-09-02T05:02:21.422Z,120.00
2022-09-02T05:03:21.282Z,132.00
2022-09-02T05:04:21.208Z,136.00
2022-09-02T05:05:21.193Z,140.00
2022-09-02T05:06:21.171Z,148.00
2022-09-02T05:07:21.155Z,156.00
2022-09-02T05:08:21.165Z,164.00
2022-09-02T05:09:21.123Z,176.00
2022-09-02T05:10:21.100Z,184.00
2022-09-02T05:11:21.087Z,196.00
2022-09-02T05:12:21.080Z,212.00
2022-09-02T05:13:21.048Z,224.00
2022-09-02T05:14:21.031Z,236.00
2022-09-02T05:15:21.014Z,252.00
2022-09-02T05:16:21.089Z,264.00
2022-09-02T05:17:20.981Z,272.00
2022-09-02T05:18:20.981Z,288.00
2022-09-02T05:19:20.953Z,296.00
2022-09-02T05:20:20.929Z,300.00
2022-09-02T05:21:20.913Z,308.00
2022-09-02T05:22:20.893Z,300.00
2022-09-02T05:23:20.892Z,300.00
2022-09-02T05:24:25.824Z,300.00
2022-09-02T05:25:20.851Z,304.00
2022-09-02T05:26:20.822Z,304.00
2022-09-02T05:27:20.801Z,308.00
2022-09-02T05:28:20.788Z,304.00
2022-09-02T05:29:20.795Z,304.00
2022-09-02T05:30:20.755Z,312.00
2022-09-02T05:31:20.773Z,312.00
2022-09-02T05:32:20.716Z,312.00
2022-09-02T05:33:20.695Z,316.00
2022-09-02T05:34:20.679Z,320.00
2022-09-02T05:35:20.682Z,316.00
2022-09-02T05:36:20.641Z,320.00
2022-09-02T05:37:20.630Z,332.00
2022-09-02T05:38:20.613Z,336.00
2022-09-02T05:39:20.585Z,348.00
2022-09-02T05:40:22.736Z,360.00
2022-09-02T05:41:20.562Z,368.00
2022-09-02T05:42:20.579Z,392.00
2022-09-02T05:43:20.587Z,412.00
2022-09-02T05:44:20.499Z,436.00
2022-09-02T05:45:20.480Z,460.00
2022-09-02T05:46:20.519Z,492.00
2022-09-02T05:47:20.444Z,480.00
2022-09-02T05:48:20.441Z,476.00
2022-09-02T05:51:02.785Z,536.00
2022-09-02T05:52:02.764Z,564.00
2022-09-02T05:53:02.750Z,568.00
2022-09-02T05:54:02.752Z,584.00
2022-09-02T05:55:02.716Z,568.00
2022-09-02T05:56:02.716Z,544.00
2022-09-02T05:57:02.680Z,536.00
2022-09-02T05:58:02.662Z,532.00
2022-09-02T05:59:02.644Z,520.00
2022-09-02T06:00:02.626Z,512.00
2022-09-02T06:01:02.618Z,504.00
2022-09-02T06:02:02.691Z,504.00
2022-09-02T06:03:02.617Z,504.00
2022-09-02T06:04:02.566Z,500.00
2022-09-02T06:05:02.537Z,488.00
2022-09-02T06:06:06.565Z,484.00
2022-09-02T06:07:02.501Z,480.00
2022-09-02T06:08:02.481Z,476.00
2022-09-02T06:09:02.462Z,468.00
2022-09-02T06:10:02.451Z,464.00
2022-09-02T06:11:02.451Z,464.00
2022-09-02T06:12:02.426Z,464.00
2022-09-02T06:13:02.394Z,464.00
2022-09-02T06:14:02.383Z,468.00
2022-09-02T06:15:02.360Z,508.00
2022-09-02T06:16:02.413Z,512.00
2022-09-02T06:17:02.325Z,512.00
2022-09-02T06:18:02.312Z,528.00
2022-09-02T06:19:02.285Z,540.00
2022-09-02T06:20:02.276Z,556.00
2022-09-02T06:21:02.272Z,584.00
2022-09-02T06:22:02.239Z,628.00
2022-09-02T06:23:02.218Z,644.00
2022-09-02T06:24:02.201Z,676.00
2022-09-02T06:25:02.195Z,720.00
2022-09-02T06:26:02.167Z,736.00
2022-09-02T06:27:03.937Z,760.00
2022-09-02T06:28:06.902Z,816.00
2022-09-02T06:29:02.118Z,864.00
2022-09-02T06:30:02.096Z,888.00
2022-09-02T06:32:44.318Z,948.00
2022-09-02T06:33:44.281Z,1008.00
2022-09-02T06:34:44.280Z,1060.00
2022-09-02T06:35:44.247Z,1060.00
2022-09-02T06:36:44.227Z,1084.00
2022-09-02T06:37:44.242Z,1108.00
2022-09-02T06:38:45.975Z,1120.00
2022-09-02T06:39:44.188Z,1132.00
2022-09-02T06:40:44.217Z,1144.00
2022-09-02T06:41:44.140Z,1148.00
2022-09-02T06:42:44.146Z,1164.00
2022-09-02T06:43:44.107Z,1144.00
2022-09-02T06:44:44.088Z,1176.00
2022-09-02T06:45:44.126Z,1196.00
2022-09-02T06:46:44.052Z,1228.00
2022-09-02T06:47:44.047Z,1244.00
2022-09-02T06:48:44.034Z,1268.00
2022-09-02T06:49:44.044Z,1280.00
2022-09-02T06:50:44.001Z,1320.00
2022-09-02T06:51:43.971Z,1336.00
2022-09-02T06:52:43.947Z,1356.00
2022-09-02T06:53:43.944Z,1384.00
2022-09-02T06:54:43.960Z,1412.00
2022-09-02T06:55:43.897Z,1404.00
2022-09-02T06:56:47.271Z,1412.00
2022-09-02T06:57:43.864Z,1428.00
2022-09-02T06:58:43.856Z,1424.00
2022-09-02T06:59:43.842Z,1456.00
2022-09-02T07:00:43.845Z,1472.00
2022-09-02T07:01:44.006Z,1476.00
2022-09-02T07:02:43.790Z,1460.00
2022-09-02T07:03:43.758Z,1468.00
2022-09-02T07:04:43.746Z,1484.00
2022-09-02T07:05:43.730Z,1496.00
2022-09-02T07:06:43.709Z,1524.00
2022-09-02T07:07:43.720Z,1580.00
2022-09-02T07:08:43.677Z,1584.00
2022-09-02T07:09:43.665Z,1612.00
2022-09-02T07:10:43.637Z,1640.00
2022-09-02T07:11:43.623Z,1644.00
2022-09-02T07:12:44.567Z,1692.00
2022-09-02T07:13:43.620Z,1696.00
2022-09-02T07:14:43.575Z,1732.00
2022-09-02T07:15:43.574Z,1732.00
2022-09-02T07:16:43.608Z,1780.00
2022-09-02T07:17:43.523Z,1808.00
2022-09-02T07:18:43.526Z,1856.00
2022-09-02T07:19:43.491Z,1880.00
2022-09-02T07:20:43.468Z,1852.00
2022-09-02T07:21:43.457Z,1848.00
2022-09-02T07:22:43.482Z,1880.00
2022-09-02T07:23:43.418Z,1940.00
2022-09-02T07:26:25.828Z,1940.00
2022-09-02T07:27:25.802Z,1888.00
2022-09-02T07:28:25.783Z,1836.00
2022-09-02T07:29:25.770Z,1860.00
2022-09-02T07:30:25.835Z,1848.00
2022-09-02T07:31:25.743Z,1808.00
2022-09-02T07:32:25.742Z,1792.00
2022-09-02T07:33:25.701Z,1768.00
2022-09-02T07:34:25.684Z,1704.00
2022-09-02T07:35:25.669Z,1680.00
2022-09-02T07:36:25.656Z,1704.00
2022-09-02T07:37:25.661Z,1704.00
2022-09-02T07:38:25.625Z,1684.00
2022-09-02T07:39:25.604Z,1652.00
2022-09-02T07:40:25.620Z,1552.00
2022-09-02T07:41:25.566Z,1556.00
2022-09-02T07:42:25.554Z,1524.00
2022-09-02T07:43:25.563Z,1540.00
2022-09-02T07:44:25.520Z,1548.00
2022-09-02T07:45:25.507Z,1544.00
2022-09-02T07:46:25.554Z,1560.00
2022-09-02T07:47:25.466Z,1584.00
2022-09-02T07:48:25.474Z,1672.00
2022-09-02T07:49:25.492Z,1692.00
2022-09-02T07:50:25.418Z,1700.00
2022-09-02T07:51:29.169Z,1664.00
2022-09-02T07:52:25.382Z,1760.00
2022-09-02T07:53:25.385Z,1780.00
2022-09-02T07:54:25.346Z,1760.00
2022-09-02T07:55:25.363Z,1732.00
2022-09-02T07:56:25.313Z,1816.00
2022-09-02T07:57:25.307Z,1852.00
2022-09-02T07:58:25.286Z,1792.00
2022-09-02T07:59:25.267Z,1776.00
2022-09-02T08:00:25.269Z,1696.00
2022-09-02T08:01:25.309Z,1620.00
2022-09-02T08:02:25.271Z,1540.00
2022-09-02T08:03:25.198Z,1504.00
2022-09-02T08:04:25.185Z,1460.00
2022-09-02T08:05:25.196Z,1396.00
2022-09-02T08:06:27.747Z,1360.00
2022-09-02T08:07:25.160Z,1312.00
2022-09-02T08:08:25.115Z,1260.00
2022-09-02T08:09:25.106Z,1296.00
2022-09-02T08:10:25.087Z,1256.00
2022-09-02T08:11:25.085Z,1280.00
2022-09-02T08:14:07.358Z,1248.00
2022-09-02T08:15:07.329Z,1272.00
2022-09-02T08:16:07.364Z,1252.00
2022-09-02T08:17:07.287Z,1268.00
2022-09-02T08:18:07.300Z,1252.00
2022-09-02T08:19:07.253Z,1256.00
2022-09-02T08:20:11.701Z,1288.00
2022-09-02T08:21:07.216Z,1288.00
2022-09-02T08:22:07.223Z,1280.00
2022-09-02T08:23:11.632Z,1292.00
2022-09-02T08:24:07.166Z,1280.00
2022-09-02T08:25:07.161Z,1304.00
2022-09-02T08:26:07.145Z,1312.00
2022-09-02T08:27:07.119Z,1292.00
2022-09-02T08:28:07.103Z,1316.00
2022-09-02T08:29:07.101Z,1324.00
2022-09-02T08:30:07.083Z,1300.00
2022-09-02T08:31:07.068Z,1324.00
2022-09-02T08:32:07.088Z,1308.00
2022-09-02T08:33:07.019Z,1308.00
2022-09-02T08:34:07.011Z,1324.00
2022-09-02T08:35:07.022Z,1328.00
2022-09-02T08:37:49.340Z,1308.00
2022-09-02T08:38:49.364Z,1352.00
2022-09-02T08:39:49.306Z,1380.00
2022-09-02T08:40:49.379Z,1428.00
2022-09-02T08:41:49.341Z,1380.00
2022-09-02T08:42:51.641Z,1400.00
2022-09-02T08:43:49.262Z,1448.00
2022-09-02T08:44:49.241Z,1504.00
2022-09-02T08:45:49.270Z,1592.00
2022-09-02T08:46:49.200Z,1700.00
2022-09-02T08:47:49.178Z,1728.00
2022-09-02T08:48:49.167Z,1864.00
2022-09-02T08:49:49.145Z,2084.00
2022-09-02T08:50:49.150Z,2176.00
2022-09-02T08:51:50.953Z,2220.00
2022-09-02T08:52:49.100Z,2364.00
2022-09-02T08:53:49.079Z,2380.00
2022-09-02T08:54:49.098Z,2336.00
2022-09-02T08:55:49.057Z,2452.00
2022-09-02T08:56:49.033Z,2500.00
2022-09-02T08:57:49.017Z,2768.00
2022-09-02T08:58:49.004Z,2656.00
2022-09-02T08:59:48.987Z,2736.00
2022-09-02T09:00:49.040Z,2832.00
2022-09-02T09:01:49.005Z,2920.00
2022-09-02T09:02:49.010Z,2832.00
2022-09-02T09:03:48.998Z,3296.00
2022-09-02T09:04:49.182Z,3284.00
2022-09-02T09:05:48.890Z,3336.00
2022-09-02T09:06:48.889Z,3224.00
2022-09-02T09:07:48.858Z,3528.00
2022-09-02T09:08:48.861Z,3212.00
2022-09-02T09:09:48.826Z,2748.00
2022-09-02T09:10:48.809Z,2948.00
2022-09-02T09:11:48.797Z,4952.00
2022-09-02T09:12:48.804Z,4960.00
2022-09-02T09:13:48.795Z,3944.00
2022-09-02T09:14:48.760Z,4680.00
2022-09-02T09:15:48.737Z,5388.00
2022-09-02T09:16:48.788Z,3884.00
2022-09-02T09:17:48.714Z,4216.00
2022-09-02T09:18:48.711Z,3960.00
2022-09-02T09:19:48.693Z,5076.00
2022-09-02T09:20:48.673Z,4704.00
2022-09-02T09:21:48.648Z,1956.00
2022-09-02T09:22:48.631Z,7132.00
2022-09-02T09:23:48.649Z,4804.00
2022-09-02T09:24:48.602Z,2628.00
2022-09-02T09:25:48.592Z,5000.00
2022-09-02T09:26:48.576Z,6132.00
2022-09-02T09:27:48.569Z,4248.00
2022-09-02T09:28:48.577Z,4220.00
2022-09-02T09:29:48.539Z,4700.00
2022-09-02T09:30:48.542Z,4364.00
2022-09-02T09:31:48.532Z,5264.00
2022-09-02T09:32:48.491Z,5672.00
2022-09-02T09:33:48.477Z,7652.00
2022-09-02T09:34:48.466Z,4216.00
2022-09-02T09:35:48.472Z,7792.00
2022-09-02T09:36:48.434Z,8132.00
2022-09-02T09:37:48.422Z,7940.00
2022-09-02T09:38:48.409Z,7868.00
2022-09-02T09:39:48.393Z,7388.00
2022-09-02T09:40:48.427Z,7676.00
2022-09-02T09:41:48.380Z,8476.00
2022-09-02T09:42:50.008Z,7460.00
2022-09-02T09:43:48.346Z,7384.00
2022-09-02T09:44:48.358Z,6936.00
2022-09-02T09:45:48.369Z,6828.00
2022-09-02T09:46:48.303Z,6988.00
2022-09-02T09:47:48.294Z,8752.00
2022-09-02T09:48:48.284Z,9088.00
2022-09-02T09:49:48.263Z,15072.00
2022-09-02T09:50:48.256Z,10716.00
2022-09-02T09:51:50.074Z,15904.00
2022-09-02T09:52:48.231Z,13792.00
2022-09-02T09:53:48.219Z,12164.00
2022-09-02T09:54:48.218Z,13528.00
2022-09-02T09:55:48.212Z,15776.00
2022-09-02T09:56:48.180Z,15968.00
2022-09-02T09:57:48.191Z,7776.00
2022-09-02T09:58:48.159Z,10700.00
2022-09-02T09:59:48.150Z,14976.00
2022-09-02T10:00:48.174Z,9812.00
2022-09-02T10:01:48.192Z,6656.00
2022-09-02T10:02:48.118Z,10280.00
2022-09-02T10:03:48.108Z,6332.00
2022-09-02T10:04:48.099Z,5972.00
2022-09-02T10:05:48.101Z,6116.00
2022-09-02T10:06:48.076Z,7504.00
2022-09-02T10:07:48.090Z,6580.00
2022-09-02T10:08:48.060Z,6232.00
2022-09-02T10:09:48.055Z,17376.00
2022-09-02T10:10:48.041Z,10080.00
2022-09-02T10:11:48.032Z,6704.00
2022-09-02T10:12:48.039Z,6588.00
2022-09-02T10:13:48.012Z,7548.00
2022-09-02T10:14:48.019Z,13692.00
2022-09-02T10:15:48.005Z,27840.00
2022-09-02T10:16:48.045Z,36288.00
2022-09-02T10:17:47.981Z,40224.00
2022-09-02T10:18:49.146Z,41632.00
2022-09-02T10:19:47.966Z,41216.00
2022-09-02T10:21:04.387Z,42688.00
2022-09-02T10:21:47.939Z,42496.00
2022-09-02T10:22:59.354Z,44512.00
2022-09-02T10:23:47.922Z,47488.00
2022-09-02T10:24:47.945Z,45472.00
2022-09-02T10:25:47.911Z,41184.00
2022-09-02T10:26:47.908Z,43072.00
2022-09-02T10:27:47.885Z,41888.00
2022-09-02T10:28:47.899Z,42912.00
2022-09-02T10:29:47.868Z,25184.00
2022-09-02T10:30:47.867Z,38848.00
2022-09-02T10:31:47.908Z,39584.00
2022-09-02T10:32:47.847Z,15360.00
2022-09-02T10:33:47.847Z,38112.00
2022-09-02T10:34:47.852Z,32288.00
2022-09-02T10:35:47.822Z,18880.00
2022-09-02T10:36:47.813Z,15008.00
2022-09-02T10:37:47.820Z,36160.00
2022-09-02T10:38:47.795Z,29408.00
2022-09-02T10:39:47.780Z,23872.00
2022-09-02T10:40:47.857Z,27712.00
2022-09-02T10:41:47.869Z,20096.00
2022-09-02T10:42:47.782Z,21408.00
2022-09-02T10:43:47.757Z,24416.00
2022-09-02T10:44:47.763Z,17152.00
2022-09-02T10:45:47.742Z,25920.00
2022-09-02T10:46:47.815Z,17856.00
2022-09-02T10:47:47.797Z,15328.00
2022-09-02T10:48:47.714Z,7908.00
2022-09-02T10:49:47.704Z,12196.00
2022-09-02T10:50:49.553Z,14880.00
2022-09-02T10:51:47.705Z,10792.00
2022-09-02T10:52:47.694Z,31168.00
2022-09-02T10:53:47.664Z,16192.00
2022-09-02T10:54:47.661Z,21184.00
2022-09-02T10:55:47.653Z,17088.00
2022-09-02T10:56:47.699Z,53760.00
2022-09-02T10:57:47.655Z,27680.00
2022-09-02T11:00:29.966Z,52224.00
2022-09-02T11:01:29.889Z,19456.00
2022-09-02T11:02:29.901Z,20992.00
2022-09-02T11:03:29.916Z,33248.00
2022-09-02T11:04:29.877Z,7288.00
2022-09-02T11:05:29.859Z,8404.00
2022-09-02T11:06:40.310Z,13376.00
2022-09-02T11:07:29.837Z,46816.00
2022-09-02T11:08:31.667Z,7548.00
2022-09-02T11:11:11.907Z,3676.00
2022-09-02T11:12:11.898Z,3904.00
2022-09-02T11:13:11.909Z,8192.00
2022-09-02T11:14:11.898Z,5288.00
2022-09-02T11:15:11.872Z,46912.00
2022-09-02T11:16:11.971Z,7552.00
2022-09-02T11:17:12.904Z,79808.00
2022-09-02T11:18:11.863Z,5136.00
2022-09-02T11:19:11.837Z,60192.00
2022-09-02T11:20:11.854Z,76096.00
2022-09-02T11:21:11.822Z,78240.00
2022-09-02T11:22:11.829Z,73952.00
2022-09-02T11:23:11.808Z,63488.00
2022-09-02T11:24:11.795Z,80512.00
2022-09-02T11:25:11.811Z,64800.00
2022-09-02T11:26:11.851Z,25024.00
2022-09-02T11:27:25.785Z,78208.00
2022-09-02T11:28:13.737Z,73216.00
2022-09-02T11:29:11.762Z,61728.00
2022-09-02T11:30:11.764Z,80736.00
2022-09-02T11:31:11.738Z,48384.00
2022-09-02T11:32:11.730Z,22144.00
2022-09-02T11:33:11.754Z,63552.00
2022-09-02T11:34:11.717Z,44032.00
2022-09-02T11:35:11.706Z,30432.00
2022-09-02T11:36:11.692Z,55968.00
2022-09-02T11:37:12.119Z,63840.00
2022-09-02T11:38:11.675Z,56256.00
2022-09-02T11:39:11.695Z,63232.00
2022-09-02T11:40:32.822Z,63168.00
2022-09-02T11:42:11.795Z,51168.00
2022-09-02T11:43:11.657Z,41216.00
2022-09-02T11:44:11.625Z,8212.00
2022-09-02T11:45:11.664Z,8124.00
2022-09-02T11:46:11.703Z,8444.00
2022-09-02T11:47:11.606Z,7648.00
2022-09-02T11:48:11.590Z,7004.00
2022-09-02T11:49:11.584Z,29024.00
2022-09-02T11:50:11.658Z,9516.00
2022-09-02T11:51:11.689Z,7580.00
2022-09-02T11:52:11.608Z,7292.00
2022-09-02T11:53:11.551Z,7252.00
2022-09-02T11:54:11.544Z,14848.00
2022-09-02T11:55:11.541Z,16384.00
2022-09-02T11:56:11.515Z,8464.00
2022-09-02T11:57:11.524Z,7092.00
2022-09-02T11:58:11.522Z,7952.00
2022-09-02T11:59:11.499Z,2844.00
2022-09-02T12:00:11.591Z,2728.00
2022-09-02T12:01:13.736Z,3836.00
2022-09-02T12:02:11.504Z,2692.00
2022-09-02T12:03:28.569Z,10356.00
2022-09-02T12:05:11.528Z,14784.00
2022-09-02T12:06:11.622Z,13244.00
2022-09-02T12:07:11.519Z,15040.00
2022-09-02T12:08:11.418Z,11628.00
2022-09-02T12:09:11.408Z,17440.00
2022-09-02T12:10:11.462Z,20416.00
2022-09-02T12:11:11.407Z,3828.00
2022-09-02T12:12:11.386Z,8272.00
2022-09-02T12:13:11.362Z,8572.00
2022-09-02T12:14:11.372Z,8488.00
2022-09-02T12:15:11.350Z,8880.00
2022-09-02T12:16:11.419Z,4676.00
2022-09-02T12:17:11.324Z,5656.00
2022-09-02T12:18:11.318Z,10188.00
2022-09-02T12:19:11.327Z,4140.00
2022-09-02T12:20:11.320Z,6352.00
2022-09-02T12:21:18.283Z,5680.00
2022-09-02T12:22:11.299Z,6860.00
2022-09-02T12:23:11.305Z,6272.00
2022-09-02T12:25:53.447Z,5432.00
2022-09-02T12:26:53.449Z,4908.00
2022-09-02T12:27:53.446Z,4972.00
2022-09-02T12:28:53.422Z,5092.00
2022-09-02T12:29:53.410Z,5176.00
2022-09-02T12:30:53.407Z,8252.00
2022-09-02T12:31:53.470Z,4680.00
2022-09-02T12:32:53.370Z,4596.00
2022-09-02T12:33:53.379Z,4456.00
2022-09-02T12:34:53.355Z,4420.00
2022-09-02T12:35:53.339Z,4244.00
2022-09-02T12:36:53.352Z,4376.00
2022-09-02T12:37:53.995Z,4716.00
2022-09-02T12:38:53.309Z,4232.00
2022-09-02T12:39:53.321Z,4284.00
2022-09-02T12:40:53.348Z,8204.00
2022-09-02T12:41:53.296Z,4940.00
2022-09-02T12:42:53.273Z,5912.00
2022-09-02T12:43:53.272Z,2120.00
2022-09-02T12:44:53.278Z,1996.00
2022-09-02T12:45:53.245Z,4060.00
2022-09-02T12:46:53.337Z,6340.00
2022-09-02T12:47:53.233Z,4024.00